sensor_id;sensor_type;location;lat;lon;timestamp;pressure;altitude;pressure_sealevel;temperature
68027;BMP180;54819;48.030;14.710;2023-02-01T00:00:59;97886.40;;;4.80
68027;BMP180;54819;48.030;14.710;2023-02-01T01:36:08;97837.20;;;5.10
68027;BMP180;54819;48.030;14.710;2023-02-01T01:38:39;97819.60;;;5.10
68027;BMP180;54819;48.030;14.710;2023-02-01T01:41:07;97820.40;;;5.10
68027;BMP180;54819;48.030;14.710;2023-02-01T01:46:55;97810.40;;;5.20
68027;BMP180;54819;48.030;14.710;2023-02-01T01:49:24;97803.60;;;5.20
68027;BMP180;54819;48.030;14.710;2023-02-01T01:51:55;97812.40;;;5.20
68027;BMP180;54819;48.030;14.710;2023-02-01T01:54:32;97804.60;;;5.20
68027;BMP180;54819;48.030;14.710;2023-02-01T01:57:03;97807.80;;;5.20
68027;BMP180;54819;48.030;14.710;2023-02-01T01:59:32;97806.60;;;5.24
68027;BMP180;54819;48.030;14.710;2023-02-01T02:02:00;97802.60;;;5.30
68027;BMP180;54819;48.030;14.710;2023-02-01T02:04:27;97805.40;;;5.38
68027;BMP180;54819;48.030;14.710;2023-02-01T02:07:31;97812.80;;;5.40
68027;BMP180;54819;48.030;14.710;2023-02-01T02:09:50;97817.00;;;5.40
68027;BMP180;54819;48.030;14.710;2023-02-01T02:12:27;97820.40;;;5.40
68027;BMP180;54819;48.030;14.710;2023-02-01T02:14:54;97817.80;;;5.44
68027;BMP180;54819;48.030;14.710;2023-02-01T02:31:27;97816.40;;;5.50
68027;BMP180;54819;48.030;14.710;2023-02-01T02:36:49;97819.80;;;5.50
68027;BMP180;54819;48.030;14.710;2023-02-01T02:42:14;97819.20;;;5.60
68027;BMP180;54819;48.030;14.710;2023-02-01T02:45:16;97816.80;;;5.60
68027;BMP180;54819;48.030;14.710;2023-02-01T02:48:23;97821.60;;;5.60
68027;BMP180;54819;48.030;14.710;2023-02-01T02:50:58;97816.20;;;5.60
68027;BMP180;54819;48.030;14.710;2023-02-01T02:54:07;97812.60;;;5.58
68027;BMP180;54819;48.030;14.710;2023-02-01T02:56:58;97815.60;;;5.50
68027;BMP180;54819;48.030;14.710;2023-02-01T02:59:46;97809.40;;;5.60
68027;BMP180;54819;48.030;14.710;2023-02-01T03:02:33;97808.00;;;5.60
68027;BMP180;54819;48.030;14.710;2023-02-01T03:05:19;97808.00;;;5.60
68027;BMP180;54819;48.030;14.710;2023-02-01T03:08:00;97802.20;;;5.60
68027;BMP180;54819;48.030;14.710;2023-02-01T03:13:02;97799.80;;;5.60
68027;BMP180;54819;48.030;14.710;2023-02-01T03:18:04;97798.40;;;5.62
68027;BMP180;54819;48.030;14.710;2023-02-01T03:20:34;97794.00;;;5.68
68027;BMP180;54819;48.030;14.710;2023-02-01T03:23:04;97798.20;;;5.70
68027;BMP180;54819;48.030;14.710;2023-02-01T03:25:34;97800.40;;;5.70
68027;BMP180;54819;48.030;14.710;2023-02-01T03:28:05;97791.60;;;5.70
68027;BMP180;54819;48.030;14.710;2023-02-01T03:30:36;97782.20;;;5.70
68027;BMP180;54819;48.030;14.710;2023-02-01T03:33:07;97792.80;;;5.70
68027;BMP180;54819;48.030;14.710;2023-02-01T03:38:41;97786.60;;;5.70
68027;BMP180;54819;48.030;14.710;2023-02-01T03:41:40;97777.80;;;5.70
68027;BMP180;54819;48.030;14.710;2023-02-01T03:47:07;97769.40;;;5.80
68027;BMP180;54819;48.030;14.710;2023-02-01T03:49:45;97760.80;;;5.80
68027;BMP180;54819;48.030;14.710;2023-02-01T03:52:17;97759.20;;;5.80
68027;BMP180;54819;48.030;14.710;2023-02-01T03:54:44;97758.20;;;5.82
68027;BMP180;54819;48.030;14.710;2023-02-01T03:57:14;97757.00;;;5.80
68027;BMP180;54819;48.030;14.710;2023-02-01T03:59:45;97753.20;;;5.80
68027;BMP180;54819;48.030;14.710;2023-02-01T04:02:12;97752.40;;;5.80
68027;BMP180;54819;48.030;14.710;2023-02-01T04:04:38;97743.60;;;5.86
68027;BMP180;54819;48.030;14.710;2023-02-01T04:07:05;97738.20;;;5.90
68027;BMP180;54819;48.030;14.710;2023-02-01T04:09:32;97746.80;;;5.90
68027;BMP180;54819;48.030;14.710;2023-02-01T04:11:59;97737.00;;;5.90
68027;BMP180;54819;48.030;14.710;2023-02-01T04:14:26;97741.20;;;6.00
68027;BMP180;54819;48.030;14.710;2023-02-01T04:16:52;97737.00;;;5.90
68027;BMP180;54819;48.030;14.710;2023-02-01T04:19:20;97736.60;;;5.94
68027;BMP180;54819;48.030;14.710;2023-02-01T04:21:46;97738.40;;;5.98
68027;BMP180;54819;48.030;14.710;2023-02-01T04:24:13;97721.40;;;6.00
68027;BMP180;54819;48.030;14.710;2023-02-01T04:26:40;97741.40;;;6.00
68027;BMP180;54819;48.030;14.710;2023-02-01T04:29:08;97739.00;;;5.90
68027;BMP180;54819;48.030;14.710;2023-02-01T04:31:35;97746.20;;;5.90
68027;BMP180;54819;48.030;14.710;2023-02-01T04:34:03;97744.60;;;5.90
68027;BMP180;54819;48.030;14.710;2023-02-01T04:36:29;97744.60;;;6.00
68027;BMP180;54819;48.030;14.710;2023-02-01T04:38:56;97743.40;;;6.00
68027;BMP180;54819;48.030;14.710;2023-02-01T04:41:23;97750.80;;;6.00
68027;BMP180;54819;48.030;14.710;2023-02-01T04:43:50;97751.00;;;6.00
68027;BMP180;54819;48.030;14.710;2023-02-01T04:46:18;97741.00;;;6.00
68027;BMP180;54819;48.030;14.710;2023-02-01T04:48:45;97736.40;;;6.00
68027;BMP180;54819;48.030;14.710;2023-02-01T04:51:11;97743.80;;;6.00
68027;BMP180;54819;48.030;14.710;2023-02-01T04:53:39;97739.80;;;6.00
68027;BMP180;54819;48.030;14.710;2023-02-01T04:56:06;97729.40;;;6.00
68027;BMP180;54819;48.030;14.710;2023-02-01T04:58:33;97723.80;;;6.00
68027;BMP180;54819;48.030;14.710;2023-02-01T05:01:02;97723.00;;;6.00
68027;BMP180;54819;48.030;14.710;2023-02-01T05:03:34;97722.60;;;6.00
68027;BMP180;54819;48.030;14.710;2023-02-01T05:06:01;97728.00;;;6.00
68027;BMP180;54819;48.030;14.710;2023-02-01T05:08:31;97717.80;;;6.10
68027;BMP180;54819;48.030;14.710;2023-02-01T05:10:58;97725.80;;;6.10
68027;BMP180;54819;48.030;14.710;2023-02-01T05:13:25;97731.00;;;6.10
68027;BMP180;54819;48.030;14.710;2023-02-01T05:16:10;97728.00;;;6.08
68027;BMP180;54819;48.030;14.710;2023-02-01T05:18:37;97721.80;;;6.10
68027;BMP180;54819;48.030;14.710;2023-02-01T05:21:04;97732.00;;;6.10
68027;BMP180;54819;48.030;14.710;2023-02-01T05:23:31;97743.40;;;6.10
68027;BMP180;54819;48.030;14.710;2023-02-01T05:26:01;97732.40;;;6.06
68027;BMP180;54819;48.030;14.710;2023-02-01T05:28:28;97739.40;;;6.10
68027;BMP180;54819;48.030;14.710;2023-02-01T05:30:55;97722.00;;;6.10
68027;BMP180;54819;48.030;14.710;2023-02-01T05:33:22;97713.00;;;6.10
68027;BMP180;54819;48.030;14.710;2023-02-01T05:35:49;97717.40;;;6.10
68027;BMP180;54819;48.030;14.710;2023-02-01T05:38:16;97714.60;;;6.10
68027;BMP180;54819;48.030;14.710;2023-02-01T05:40:43;97721.20;;;6.10
68027;BMP180;54819;48.030;14.710;2023-02-01T05:43:16;97723.60;;;6.08
68027;BMP180;54819;48.030;14.710;2023-02-01T05:45:42;97726.00;;;6.02
68027;BMP180;54819;48.030;14.710;2023-02-01T05:48:09;97722.80;;;6.10
68027;BMP180;54819;48.030;14.710;2023-02-01T05:50:36;97731.20;;;6.08
68027;BMP180;54819;48.030;14.710;2023-02-01T05:53:07;97733.20;;;6.00
68027;BMP180;54819;48.030;14.710;2023-02-01T05:55:36;97730.60;;;6.10
68027;BMP180;54819;48.030;14.710;2023-02-01T05:58:03;97737.40;;;6.10
68027;BMP180;54819;48.030;14.710;2023-02-01T06:00:30;97727.60;;;6.10
68027;BMP180;54819;48.030;14.710;2023-02-01T06:02:57;97731.00;;;6.12
68027;BMP180;54819;48.030;14.710;2023-02-01T06:05:24;97733.00;;;6.10
68027;BMP180;54819;48.030;14.710;2023-02-01T06:07:51;97741.40;;;6.10
68027;BMP180;54819;48.030;14.710;2023-02-01T06:10:18;97740.80;;;6.10
68027;BMP180;54819;48.030;14.710;2023-02-01T06:12:46;97736.40;;;6.10
68027;BMP180;54819;48.030;14.710;2023-02-01T06:15:13;97736.60;;;6.18
68027;BMP180;54819;48.030;14.710;2023-02-01T06:17:43;97740.80;;;6.20
68027;BMP180;54819;48.030;14.710;2023-02-01T06:20:12;97741.60;;;6.20
68027;BMP180;54819;48.030;14.710;2023-02-01T06:22:40;97735.60;;;6.20
68027;BMP180;54819;48.030;14.710;2023-02-01T06:25:08;97725.40;;;6.20
68027;BMP180;54819;48.030;14.710;2023-02-01T06:27:36;97717.60;;;6.20
68027;BMP180;54819;48.030;14.710;2023-02-01T06:30:04;97742.00;;;6.20
68027;BMP180;54819;48.030;14.710;2023-02-01T06:32:32;97731.60;;;6.20
68027;BMP180;54819;48.030;14.710;2023-02-01T06:34:59;97735.20;;;6.20
68027;BMP180;54819;48.030;14.710;2023-02-01T06:37:27;97736.20;;;6.30
68027;BMP180;54819;48.030;14.710;2023-02-01T06:39:56;97736.60;;;6.30
68027;BMP180;54819;48.030;14.710;2023-02-01T06:42:23;97741.00;;;6.20
68027;BMP180;54819;48.030;14.710;2023-02-01T06:44:50;97751.00;;;6.20
68027;BMP180;54819;48.030;14.710;2023-02-01T06:47:17;97753.40;;;6.20
68027;BMP180;54819;48.030;14.710;2023-02-01T06:49:43;97761.60;;;6.20
68027;BMP180;54819;48.030;14.710;2023-02-01T06:52:10;97761.40;;;6.20
68027;BMP180;54819;48.030;14.710;2023-02-01T06:54:37;97768.00;;;6.20
68027;BMP180;54819;48.030;14.710;2023-02-01T06:57:04;97769.00;;;6.20
68027;BMP180;54819;48.030;14.710;2023-02-01T06:59:31;97764.20;;;6.12
68027;BMP180;54819;48.030;14.710;2023-02-01T07:01:57;97760.20;;;6.10
68027;BMP180;54819;48.030;14.710;2023-02-01T07:04:24;97758.20;;;6.12
68027;BMP180;54819;48.030;14.710;2023-02-01T07:06:51;97767.80;;;6.20
68027;BMP180;54819;48.030;14.710;2023-02-01T07:09:18;97763.20;;;6.20
68027;BMP180;54819;48.030;14.710;2023-02-01T07:11:45;97768.20;;;6.20
68027;BMP180;54819;48.030;14.710;2023-02-01T07:14:12;97767.00;;;6.20
68027;BMP180;54819;48.030;14.710;2023-02-01T07:16:39;97773.20;;;6.20
68027;BMP180;54819;48.030;14.710;2023-02-01T07:19:05;97763.80;;;6.20
68027;BMP180;54819;48.030;14.710;2023-02-01T07:21:32;97756.00;;;6.20
68027;BMP180;54819;48.030;14.710;2023-02-01T07:23:59;97763.20;;;6.26
68027;BMP180;54819;48.030;14.710;2023-02-01T07:26:26;97763.40;;;6.26
68027;BMP180;54819;48.030;14.710;2023-02-01T07:28:53;97767.40;;;6.30
68027;BMP180;54819;48.030;14.710;2023-02-01T07:31:19;97768.80;;;6.30
68027;BMP180;54819;48.030;14.710;2023-02-01T07:33:49;97761.20;;;6.30
68027;BMP180;54819;48.030;14.710;2023-02-01T07:36:18;97755.20;;;6.30
68027;BMP180;54819;48.030;14.710;2023-02-01T07:38:45;97750.40;;;6.30
68027;BMP180;54819;48.030;14.710;2023-02-01T07:41:15;97749.00;;;6.30
68027;BMP180;54819;48.030;14.710;2023-02-01T07:43:43;97741.20;;;6.30
68027;BMP180;54819;48.030;14.710;2023-02-01T07:46:10;97744.20;;;6.40
68027;BMP180;54819;48.030;14.710;2023-02-01T07:48:38;97730.80;;;6.40
68027;BMP180;54819;48.030;14.710;2023-02-01T07:51:09;97728.00;;;6.40
68027;BMP180;54819;48.030;14.710;2023-02-01T07:53:37;97730.60;;;6.40
68027;BMP180;54819;48.030;14.710;2023-02-01T07:56:17;97736.40;;;6.40
68027;BMP180;54819;48.030;14.710;2023-02-01T07:58:48;97731.40;;;6.40
68027;BMP180;54819;48.030;14.710;2023-02-01T08:01:23;97730.40;;;6.40
68027;BMP180;54819;48.030;14.710;2023-02-01T08:03:56;97724.60;;;6.40
68027;BMP180;54819;48.030;14.710;2023-02-01T08:06:23;97728.40;;;6.50
68027;BMP180;54819;48.030;14.710;2023-02-01T08:08:52;97722.20;;;6.50
68027;BMP180;54819;48.030;14.710;2023-02-01T08:11:21;97718.20;;;6.50
68027;BMP180;54819;48.030;14.710;2023-02-01T08:13:48;97713.60;;;6.50
68027;BMP180;54819;48.030;14.710;2023-02-01T08:16:17;97704.80;;;6.50
68027;BMP180;54819;48.030;14.710;2023-02-01T08:18:44;97712.60;;;6.50
68027;BMP180;54819;48.030;14.710;2023-02-01T08:21:24;97712.60;;;6.50
68027;BMP180;54819;48.030;14.710;2023-02-01T08:23:51;97719.00;;;6.50
68027;BMP180;54819;48.030;14.710;2023-02-01T08:26:23;97713.20;;;6.52
68027;BMP180;54819;48.030;14.710;2023-02-01T08:28:55;97703.00;;;6.50
68027;BMP180;54819;48.030;14.710;2023-02-01T08:31:25;97698.20;;;6.60
68027;BMP180;54819;48.030;14.710;2023-02-01T08:33:55;97698.40;;;6.60
68027;BMP180;54819;48.030;14.710;2023-02-01T08:36:23;97694.80;;;6.60
68027;BMP180;54819;48.030;14.710;2023-02-01T08:38:50;97690.60;;;6.60
68027;BMP180;54819;48.030;14.710;2023-02-01T08:41:19;97683.40;;;6.68
68027;BMP180;54819;48.030;14.710;2023-02-01T08:43:46;97667.40;;;6.70
68027;BMP180;54819;48.030;14.710;2023-02-01T08:46:15;97664.40;;;6.70
68027;BMP180;54819;48.030;14.710;2023-02-01T08:48:42;97659.80;;;6.72
68027;BMP180;54819;48.030;14.710;2023-02-01T08:51:11;97653.80;;;6.80
68027;BMP180;54819;48.030;14.710;2023-02-01T08:53:39;97647.80;;;6.80
68027;BMP180;54819;48.030;14.710;2023-02-01T08:56:11;97649.60;;;6.78
68027;BMP180;54819;48.030;14.710;2023-02-01T08:58:38;97650.20;;;6.84
68027;BMP180;54819;48.030;14.710;2023-02-01T09:01:08;97641.60;;;6.90
68027;BMP180;54819;48.030;14.710;2023-02-01T09:03:35;97645.00;;;6.90
68027;BMP180;54819;48.030;14.710;2023-02-01T09:06:04;97650.60;;;6.96
68027;BMP180;54819;48.030;14.710;2023-02-01T09:08:32;97656.00;;;6.96
68027;BMP180;54819;48.030;14.710;2023-02-01T09:11:01;97653.80;;;7.00
68027;BMP180;54819;48.030;14.710;2023-02-01T09:13:29;97649.60;;;7.00
68027;BMP180;54819;48.030;14.710;2023-02-01T09:15:56;97655.40;;;7.08
68027;BMP180;54819;48.030;14.710;2023-02-01T09:18:23;97655.40;;;7.10
68027;BMP180;54819;48.030;14.710;2023-02-01T09:20:50;97656.00;;;7.10
68027;BMP180;54819;48.030;14.710;2023-02-01T09:23:17;97651.00;;;7.10
68027;BMP180;54819;48.030;14.710;2023-02-01T09:25:47;97646.20;;;7.20
68027;BMP180;54819;48.030;14.710;2023-02-01T09:28:17;97643.40;;;7.20
68027;BMP180;54819;48.030;14.710;2023-02-01T09:30:44;97647.60;;;7.28
68027;BMP180;54819;48.030;14.710;2023-02-01T09:33:11;97642.40;;;7.30
68027;BMP180;54819;48.030;14.710;2023-02-01T09:35:38;97647.00;;;7.30
68027;BMP180;54819;48.030;14.710;2023-02-01T09:38:05;97643.80;;;7.34
68027;BMP180;54819;48.030;14.710;2023-02-01T09:40:34;97641.60;;;7.40
68027;BMP180;54819;48.030;14.710;2023-02-01T09:43:10;97651.20;;;7.40
68027;BMP180;54819;48.030;14.710;2023-02-01T09:46:14;97649.80;;;7.40
68027;BMP180;54819;48.030;14.710;2023-02-01T09:48:45;97648.20;;;7.40
68027;BMP180;54819;48.030;14.710;2023-02-01T09:51:16;97644.40;;;7.40
68027;BMP180;54819;48.030;14.710;2023-02-01T09:53:48;97657.40;;;7.40
68027;BMP180;54819;48.030;14.710;2023-02-01T09:56:24;97653.00;;;7.40
68027;BMP180;54819;48.030;14.710;2023-02-01T10:01:29;97664.20;;;7.40
68027;BMP180;54819;48.030;14.710;2023-02-01T10:04:03;97646.80;;;7.40
68027;BMP180;54819;48.030;14.710;2023-02-01T10:22:54;97649.20;;;7.40
68027;BMP180;54819;48.030;14.710;2023-02-01T10:25:53;97633.80;;;7.66
68027;BMP180;54819;48.030;14.710;2023-02-01T10:28:22;97625.00;;;7.70
68027;BMP180;54819;48.030;14.710;2023-02-01T10:30:56;97625.00;;;7.80
68027;BMP180;54819;48.030;14.710;2023-02-01T10:33:26;97609.00;;;7.90
68027;BMP180;54819;48.030;14.710;2023-02-01T10:36:36;97608.80;;;7.92
68027;BMP180;54819;48.030;14.710;2023-02-01T10:39:03;97624.00;;;8.00
68027;BMP180;54819;48.030;14.710;2023-02-01T10:41:39;97623.00;;;8.00
68027;BMP180;54819;48.030;14.710;2023-02-01T10:44:11;97615.00;;;8.00
68027;BMP180;54819;48.030;14.710;2023-02-01T10:46:39;97617.20;;;8.10
68027;BMP180;54819;48.030;14.710;2023-02-01T10:54:52;97622.00;;;7.94
68027;BMP180;54819;48.030;14.710;2023-02-01T10:57:25;97622.60;;;7.88
68027;BMP180;54819;48.030;14.710;2023-02-01T10:59:52;97614.40;;;7.70
68027;BMP180;54819;48.030;14.710;2023-02-01T11:02:31;97621.60;;;7.60
68027;BMP180;54819;48.030;14.710;2023-02-01T11:05:04;97618.60;;;7.68
68027;BMP180;54819;48.030;14.710;2023-02-01T11:07:32;97616.20;;;7.70
68027;BMP180;54819;48.030;14.710;2023-02-01T11:09:59;97614.60;;;7.70
68027;BMP180;54819;48.030;14.710;2023-02-01T11:12:36;97607.80;;;7.70
68027;BMP180;54819;48.030;14.710;2023-02-01T11:17:44;97591.60;;;8.00
68027;BMP180;54819;48.030;14.710;2023-02-01T11:22:49;97595.60;;;7.94
68027;BMP180;54819;48.030;14.710;2023-02-01T11:25:19;97600.80;;;7.90
68027;BMP180;54819;48.030;14.710;2023-02-01T11:27:49;97603.60;;;7.80
68027;BMP180;54819;48.030;14.710;2023-02-01T11:30:36;97595.80;;;7.76
68027;BMP180;54819;48.030;14.710;2023-02-01T11:33:05;97601.40;;;7.70
68027;BMP180;54819;48.030;14.710;2023-02-01T11:35:37;97605.40;;;7.70
68027;BMP180;54819;48.030;14.710;2023-02-01T11:38:39;97603.40;;;7.70
68027;BMP180;54819;48.030;14.710;2023-02-01T11:41:13;97609.40;;;7.70
68027;BMP180;54819;48.030;14.710;2023-02-01T11:44:22;97624.80;;;7.60
68027;BMP180;54819;48.030;14.710;2023-02-01T11:46:52;97647.00;;;7.50
68027;BMP180;54819;48.030;14.710;2023-02-01T11:49:25;97689.00;;;7.30
68027;BMP180;54819;48.030;14.710;2023-02-01T12:00:26;97700.80;;;6.04
68027;BMP180;54819;48.030;14.710;2023-02-01T12:08:12;97674.00;;;5.90
68027;BMP180;54819;48.030;14.710;2023-02-01T12:13:50;97660.00;;;6.02
68027;BMP180;54819;48.030;14.710;2023-02-01T12:19:39;97643.60;;;6.30
68027;BMP180;54819;48.030;14.710;2023-02-01T12:22:33;97639.60;;;6.50
68027;BMP180;54819;48.030;14.710;2023-02-01T12:25:15;97645.20;;;6.50
68027;BMP180;54819;48.030;14.710;2023-02-01T12:33:16;97622.40;;;6.70
68027;BMP180;54819;48.030;14.710;2023-02-01T12:36:24;97619.20;;;6.70
68027;BMP180;54819;48.030;14.710;2023-02-01T12:49:23;97595.00;;;6.70
68027;BMP180;54819;48.030;14.710;2023-02-01T12:51:59;97577.80;;;6.80
68027;BMP180;54819;48.030;14.710;2023-02-01T12:57:40;97578.20;;;7.10
68027;BMP180;54819;48.030;14.710;2023-02-01T13:00:23;97567.00;;;7.10
68027;BMP180;54819;48.030;14.710;2023-02-01T13:02:54;97553.60;;;7.26
68027;BMP180;54819;48.030;14.710;2023-02-01T13:05:29;97568.80;;;7.30
68027;BMP180;54819;48.030;14.710;2023-02-01T13:08:02;97534.20;;;7.40
68027;BMP180;54819;48.030;14.710;2023-02-01T13:10:46;97550.40;;;7.40
68027;BMP180;54819;48.030;14.710;2023-02-01T13:15:55;97560.00;;;7.50
68027;BMP180;54819;48.030;14.710;2023-02-01T13:18:25;97569.80;;;7.48
68027;BMP180;54819;48.030;14.710;2023-02-01T13:21:03;97567.00;;;7.42
68027;BMP180;54819;48.030;14.710;2023-02-01T13:23:35;97575.80;;;7.60
68027;BMP180;54819;48.030;14.710;2023-02-01T13:26:03;97580.60;;;7.64
68027;BMP180;54819;48.030;14.710;2023-02-01T13:28:50;97585.40;;;7.62
68027;BMP180;54819;48.030;14.710;2023-02-01T13:31:56;97588.80;;;7.66
68027;BMP180;54819;48.030;14.710;2023-02-01T13:40:34;97594.40;;;7.78
68027;BMP180;54819;48.030;14.710;2023-02-01T13:43:04;97584.80;;;7.66
68027;BMP180;54819;48.030;14.710;2023-02-01T13:45:35;97589.80;;;7.60
68027;BMP180;54819;48.030;14.710;2023-02-01T13:48:06;97592.40;;;7.60
68027;BMP180;54819;48.030;14.710;2023-02-01T13:50:38;97585.20;;;7.60
68027;BMP180;54819;48.030;14.710;2023-02-01T13:53:17;97590.40;;;7.60
68027;BMP180;54819;48.030;14.710;2023-02-01T13:55:46;97603.60;;;7.50
68027;BMP180;54819;48.030;14.710;2023-02-01T13:58:29;97633.80;;;7.48
68027;BMP180;54819;48.030;14.710;2023-02-01T14:08:45;97684.80;;;6.94
68027;BMP180;54819;48.030;14.710;2023-02-01T14:11:50;97717.60;;;6.70
68027;BMP180;54819;48.030;14.710;2023-02-01T14:19:22;97704.60;;;5.98
68027;BMP180;54819;48.030;14.710;2023-02-01T14:21:52;97708.20;;;5.80
68027;BMP180;54819;48.030;14.710;2023-02-01T14:24:31;97714.60;;;5.70
68027;BMP180;54819;48.030;14.710;2023-02-01T14:27:23;97716.20;;;5.60
68027;BMP180;54819;48.030;14.710;2023-02-01T14:29:54;97725.60;;;5.60
68027;BMP180;54819;48.030;14.710;2023-02-01T14:32:30;97719.00;;;5.60
68027;BMP180;54819;48.030;14.710;2023-02-01T14:35:00;97714.40;;;5.52
68027;BMP180;54819;48.030;14.710;2023-02-01T14:37:35;97718.00;;;5.50
68027;BMP180;54819;48.030;14.710;2023-02-01T14:47:51;97697.80;;;5.60
68027;BMP180;54819;48.030;14.710;2023-02-01T14:53:03;97689.20;;;5.50
68027;BMP180;54819;48.030;14.710;2023-02-01T14:55:37;97682.60;;;5.60
68027;BMP180;54819;48.030;14.710;2023-02-01T15:00:57;97684.60;;;5.60
68027;BMP180;54819;48.030;14.710;2023-02-01T15:03:41;97690.60;;;5.60
68027;BMP180;54819;48.030;14.710;2023-02-01T15:06:39;97686.20;;;5.58
68027;BMP180;54819;48.030;14.710;2023-02-01T15:09:27;97690.00;;;5.50
68027;BMP180;54819;48.030;14.710;2023-02-01T15:11:56;97689.60;;;5.58
68027;BMP180;54819;48.030;14.710;2023-02-01T15:14:24;97680.60;;;5.60
68027;BMP180;54819;48.030;14.710;2023-02-01T15:16:51;97684.00;;;5.52
68027;BMP180;54819;48.030;14.710;2023-02-01T15:19:22;97681.40;;;5.60
68027;BMP180;54819;48.030;14.710;2023-02-01T15:21:56;97682.40;;;5.60
68027;BMP180;54819;48.030;14.710;2023-02-01T15:26:52;97675.80;;;5.60
68027;BMP180;54819;48.030;14.710;2023-02-01T15:29:23;97676.20;;;5.60
68027;BMP180;54819;48.030;14.710;2023-02-01T15:31:54;97678.20;;;5.60
68027;BMP180;54819;48.030;14.710;2023-02-01T15:34:21;97682.00;;;5.60
68027;BMP180;54819;48.030;14.710;2023-02-01T15:36:48;97680.20;;;5.60
68027;BMP180;54819;48.030;14.710;2023-02-01T15:39:29;97677.00;;;5.70
68027;BMP180;54819;48.030;14.710;2023-02-01T15:42:01;97676.60;;;5.70
68027;BMP180;54819;48.030;14.710;2023-02-01T15:44:45;97675.80;;;5.80
68027;BMP180;54819;48.030;14.710;2023-02-01T15:47:18;97662.80;;;5.80
68027;BMP180;54819;48.030;14.710;2023-02-01T15:49:51;97657.60;;;5.80
68027;BMP180;54819;48.030;14.710;2023-02-01T15:54:53;97660.00;;;5.80
68027;BMP180;54819;48.030;14.710;2023-02-01T15:57:29;97663.20;;;5.80
68027;BMP180;54819;48.030;14.710;2023-02-01T16:00:03;97657.60;;;5.90
68027;BMP180;54819;48.030;14.710;2023-02-01T16:02:42;97657.40;;;5.90
68027;BMP180;54819;48.030;14.710;2023-02-01T16:07:59;97659.80;;;5.94
68027;BMP180;54819;48.030;14.710;2023-02-01T16:10:31;97659.40;;;6.00
68027;BMP180;54819;48.030;14.710;2023-02-01T16:12:58;97658.80;;;6.00
68027;BMP180;54819;48.030;14.710;2023-02-01T16:15:27;97654.20;;;6.00
68027;BMP180;54819;48.030;14.710;2023-02-01T16:17:56;97655.00;;;6.10
68027;BMP180;54819;48.030;14.710;2023-02-01T16:20:22;97663.40;;;6.10
68027;BMP180;54819;48.030;14.710;2023-02-01T16:22:49;97667.40;;;6.10
68027;BMP180;54819;48.030;14.710;2023-02-01T16:25:16;97660.40;;;6.10
68027;BMP180;54819;48.030;14.710;2023-02-01T16:27:43;97651.60;;;6.20
68027;BMP180;54819;48.030;14.710;2023-02-01T16:30:10;97658.40;;;6.20
68027;BMP180;54819;48.030;14.710;2023-02-01T16:32:37;97664.60;;;6.20
68027;BMP180;54819;48.030;14.710;2023-02-01T16:35:19;97669.40;;;6.20
68027;BMP180;54819;48.030;14.710;2023-02-01T16:37:48;97674.80;;;6.20
68027;BMP180;54819;48.030;14.710;2023-02-01T16:40:17;97670.60;;;6.28
68027;BMP180;54819;48.030;14.710;2023-02-01T16:42:46;97674.00;;;6.20
68027;BMP180;54819;48.030;14.710;2023-02-01T16:45:14;97678.60;;;6.22
68027;BMP180;54819;48.030;14.710;2023-02-01T16:47:46;97671.40;;;6.26
68027;BMP180;54819;48.030;14.710;2023-02-01T16:50:17;97675.80;;;6.24
68027;BMP180;54819;48.030;14.710;2023-02-01T16:52:49;97671.20;;;6.22
68027;BMP180;54819;48.030;14.710;2023-02-01T16:55:18;97669.20;;;6.30
68027;BMP180;54819;48.030;14.710;2023-02-01T16:57:46;97674.60;;;6.30
68027;BMP180;54819;48.030;14.710;2023-02-01T17:00:14;97672.60;;;6.26
68027;BMP180;54819;48.030;14.710;2023-02-01T17:02:51;97667.80;;;6.30
68027;BMP180;54819;48.030;14.710;2023-02-01T17:05:18;97663.80;;;6.30
68027;BMP180;54819;48.030;14.710;2023-02-01T17:07:45;97663.60;;;6.30
68027;BMP180;54819;48.030;14.710;2023-02-01T17:10:26;97660.60;;;6.28
68027;BMP180;54819;48.030;14.710;2023-02-01T17:13:01;97653.60;;;6.30
68027;BMP180;54819;48.030;14.710;2023-02-01T17:15:32;97664.00;;;6.30
68027;BMP180;54819;48.030;14.710;2023-02-01T17:18:01;97659.00;;;6.30
68027;BMP180;54819;48.030;14.710;2023-02-01T17:20:31;97661.40;;;6.30
68027;BMP180;54819;48.030;14.710;2023-02-01T17:22:59;97664.80;;;6.30
68027;BMP180;54819;48.030;14.710;2023-02-01T17:25:27;97654.80;;;6.30
68027;BMP180;54819;48.030;14.710;2023-02-01T17:27:56;97655.00;;;6.30
68027;BMP180;54819;48.030;14.710;2023-02-01T17:30:23;97657.20;;;6.30
68027;BMP180;54819;48.030;14.710;2023-02-01T17:32:50;97660.60;;;6.30
68027;BMP180;54819;48.030;14.710;2023-02-01T17:35:21;97646.60;;;6.30
68027;BMP180;54819;48.030;14.710;2023-02-01T17:37:50;97649.00;;;6.24
68027;BMP180;54819;48.030;14.710;2023-02-01T17:40:18;97654.20;;;6.30
68027;BMP180;54819;48.030;14.710;2023-02-01T17:42:45;97644.40;;;6.28
68027;BMP180;54819;48.030;14.710;2023-02-01T17:47:50;97636.00;;;6.30
68027;BMP180;54819;48.030;14.710;2023-02-01T17:50:17;97627.40;;;6.22
68027;BMP180;54819;48.030;14.710;2023-02-01T17:52:45;97642.20;;;6.20
68027;BMP180;54819;48.030;14.710;2023-02-01T17:55:18;97638.60;;;6.20
68027;BMP180;54819;48.030;14.710;2023-02-01T17:57:49;97649.40;;;6.26
68027;BMP180;54819;48.030;14.710;2023-02-01T18:00:18;97636.00;;;6.30
68027;BMP180;54819;48.030;14.710;2023-02-01T18:02:46;97637.80;;;6.28
68027;BMP180;54819;48.030;14.710;2023-02-01T18:08:05;97646.80;;;6.20
68027;BMP180;54819;48.030;14.710;2023-02-01T18:10:33;97641.00;;;6.20
68027;BMP180;54819;48.030;14.710;2023-02-01T18:13:02;97647.20;;;6.20
68027;BMP180;54819;48.030;14.710;2023-02-01T18:15:30;97651.80;;;6.20
68027;BMP180;54819;48.030;14.710;2023-02-01T18:17:58;97649.60;;;6.20
68027;BMP180;54819;48.030;14.710;2023-02-01T18:20:26;97651.60;;;6.20
68027;BMP180;54819;48.030;14.710;2023-02-01T18:22:55;97648.20;;;6.20
68027;BMP180;54819;48.030;14.710;2023-02-01T18:25:26;97651.60;;;6.20
68027;BMP180;54819;48.030;14.710;2023-02-01T18:27:55;97639.20;;;6.26
68027;BMP180;54819;48.030;14.710;2023-02-01T18:30:28;97642.00;;;6.20
68027;BMP180;54819;48.030;14.710;2023-02-01T18:32:56;97651.20;;;6.20
68027;BMP180;54819;48.030;14.710;2023-02-01T18:35:25;97647.00;;;6.14
68027;BMP180;54819;48.030;14.710;2023-02-01T18:37:53;97659.60;;;6.10